Weather at Veľká Lomnica Airstrip

Public forecast

Using degrees Celsius for public forecast. Weather courtesy of forecast.io.

Closest aviation weather report (METAR) to Veľká Lomnica Airstrip

Closest report is Poprad-Tatry Airport, 4.5 nm (8.3 km) WSW.

2024/05/28 17:30 (retrieved 31 minutes ago)

LZTT 281730Z 06005KT 9999 FEW066 18/08 Q1015

Closest aviation forecast (TAF) to Veľká Lomnica Airstrip

Closest forecast is Poprad-Tatry Airport, 4.5 nm (8.3 km) WSW.

2024/05/28 18:12 (retrieved 0 seconds ago)

TAF LZTT 281715Z 2818/2918 08008KT CAVOK BECMG 2818/2820 26004KT BECMG 2907/2909 05011KT TEMPO 2909/2917 9999 SHRA SCT033CB